createdAt,value
2022-12-03T00:03:36.075Z,99472.94
2022-12-03T00:06:24.268Z,99498.66
2022-12-03T00:09:11.351Z,99488.50
2022-12-03T00:11:58.375Z,99492.25
2022-12-03T00:14:45.447Z,99495.59
2022-12-03T00:17:32.513Z,99464.09
2022-12-03T00:20:22.831Z,99491.41
2022-12-03T00:23:09.904Z,99480.22
2022-12-03T00:25:57.115Z,99481.25
2022-12-03T00:28:44.290Z,99485.88
2022-12-03T00:31:31.369Z,99472.03
2022-12-03T00:34:18.500Z,99491.13
2022-12-03T00:37:05.638Z,99485.94
2022-12-03T00:39:52.653Z,99501.22
2022-12-03T00:42:39.733Z,99491.00
2022-12-03T00:45:26.736Z,99492.94
2022-12-03T00:48:13.760Z,99483.13
2022-12-03T00:51:00.790Z,99485.16
2022-12-03T00:53:47.869Z,99493.44
2022-12-03T00:56:34.923Z,99494.03
2022-12-03T00:59:21.958Z,99498.38
2022-12-03T01:02:09.197Z,99495.56
2022-12-03T01:04:56.629Z,99484.47
2022-12-03T01:07:45.577Z,99477.75
2022-12-03T01:10:32.647Z,99493.88
2022-12-03T01:13:19.664Z,99490.19
2022-12-03T01:16:10.061Z,99471.16
2022-12-03T01:18:57.231Z,99473.38
2022-12-03T01:21:46.426Z,99480.56
2022-12-03T01:24:33.519Z,99478.59
2022-12-03T01:27:20.668Z,99472.44
2022-12-03T01:30:08.694Z,99479.44
2022-12-03T01:32:55.751Z,99484.66
2022-12-03T01:35:42.805Z,99471.94
2022-12-03T01:38:29.828Z,99489.59
2022-12-03T01:41:18.644Z,99480.22
2022-12-03T01:44:21.273Z,99481.06
2022-12-03T01:47:15.136Z,99481.59
2022-12-03T01:50:06.831Z,99481.94
2022-12-03T01:52:56.523Z,99469.72
2022-12-03T01:55:48.314Z,99481.66
2022-12-03T01:58:35.798Z,99476.91
2022-12-03T02:01:22.899Z,99474.00
2022-12-03T02:04:14.274Z,99475.28
2022-12-03T02:07:22.946Z,99467.06
2022-12-03T02:10:13.243Z,99479.94
2022-12-03T02:13:05.047Z,99478.75
2022-12-03T02:15:52.246Z,99480.03
2022-12-03T02:18:39.398Z,99477.06
2022-12-03T02:21:58.658Z,99474.75
2022-12-03T02:25:09.260Z,99480.13
2022-12-03T02:27:56.512Z,99477.94
2022-12-03T02:30:45.240Z,99457.34
2022-12-03T02:33:32.677Z,99485.19
2022-12-03T02:36:20.817Z,99463.56
2022-12-03T02:39:07.935Z,99460.84
2022-12-03T02:42:13.576Z,99465.34
2022-12-03T02:45:12.511Z,99463.50
2022-12-03T02:48:02.899Z,99474.81
2022-12-03T02:50:57.604Z,99471.94
2022-12-03T02:53:47.718Z,99475.44
2022-12-03T02:56:35.021Z,99463.94
2022-12-03T02:59:22.228Z,99460.06
2022-12-03T03:02:13.815Z,99462.66
2022-12-03T03:05:00.970Z,99453.59
2022-12-03T03:07:49.013Z,99461.41
2022-12-03T03:10:39.217Z,99452.47
2022-12-03T03:13:26.135Z,99470.59
2022-12-03T03:16:13.293Z,99458.88
2022-12-03T03:19:01.059Z,99455.38
2022-12-03T03:21:48.198Z,99455.97
2022-12-03T03:24:35.276Z,99471.69
2022-12-03T03:27:22.336Z,99464.31
2022-12-03T03:30:10.381Z,99462.19
2022-12-03T03:32:57.820Z,99456.38
2022-12-03T03:35:47.386Z,99453.44
2022-12-03T03:38:35.761Z,99448.72
2022-12-03T03:41:23.086Z,99437.13
2022-12-03T03:44:10.616Z,99455.03
2022-12-03T03:46:57.740Z,99455.81
2022-12-03T03:49:45.010Z,99447.44
2022-12-03T03:52:32.162Z,99463.75
2022-12-03T03:55:20.590Z,99454.09
2022-12-03T03:58:07.852Z,99458.38
2022-12-03T04:00:55.024Z,99465.63
2022-12-03T04:03:42.229Z,99457.19
2022-12-03T04:06:29.339Z,99467.44
2022-12-03T04:09:16.376Z,99465.53
2022-12-03T04:12:22.275Z,99472.72
2022-12-03T04:15:09.681Z,99478.25
2022-12-03T04:18:36.275Z,99465.19
2022-12-03T04:21:45.355Z,99471.59
2022-12-03T04:24:32.398Z,99460.16
2022-12-03T04:27:38.091Z,99457.00
2022-12-03T04:30:25.323Z,99454.19
2022-12-03T04:33:31.143Z,99451.47
2022-12-03T04:36:18.195Z,99441.81
2022-12-03T04:39:05.455Z,99466.97
2022-12-03T04:41:52.528Z,99461.97
2022-12-03T04:44:39.640Z,99453.44
2022-12-03T04:47:26.696Z,99444.72
2022-12-03T04:50:13.784Z,99429.44
2022-12-03T04:53:00.775Z,99461.03
2022-12-03T04:55:47.898Z,99448.72
2022-12-03T04:58:34.929Z,99458.38
2022-12-03T05:01:22.141Z,99458.22
2022-12-03T05:04:09.394Z,99439.34
2022-12-03T05:06:56.599Z,99455.72
2022-12-03T05:09:43.649Z,99424.56
2022-12-03T05:12:30.730Z,99451.53
2022-12-03T05:15:17.956Z,99457.75
2022-12-03T05:18:05.230Z,99457.66
2022-12-03T05:20:53.656Z,99453.22
2022-12-03T05:23:41.003Z,99447.34
2022-12-03T05:26:28.169Z,99447.16
2022-12-03T05:29:15.188Z,99453.41
2022-12-03T05:32:02.261Z,99447.72
2022-12-03T05:34:49.401Z,99445.06
2022-12-03T05:37:36.437Z,99441.47
2022-12-03T05:40:24.342Z,99447.50
2022-12-03T05:43:11.464Z,99449.03
2022-12-03T05:45:58.564Z,99431.91
2022-12-03T05:48:45.723Z,99426.69
2022-12-03T05:51:32.755Z,99442.13
2022-12-03T05:54:19.866Z,99443.16
2022-12-03T05:57:07.116Z,99450.31
2022-12-03T05:59:54.196Z,99441.34
2022-12-03T06:02:41.850Z,99432.00
2022-12-03T06:05:29.046Z,99453.31
2022-12-03T06:08:16.083Z,99431.28
2022-12-03T06:11:03.269Z,99436.16
2022-12-03T06:13:50.270Z,99427.94
2022-12-03T06:16:37.401Z,99434.19
2022-12-03T06:19:24.487Z,99445.53
2022-12-03T06:22:11.514Z,99451.44
2022-12-03T06:25:04.831Z,99437.34
2022-12-03T06:27:53.489Z,99435.97
2022-12-03T06:30:40.521Z,99434.28
2022-12-03T06:33:27.565Z,99447.00
2022-12-03T06:36:17.701Z,99451.19
2022-12-03T06:39:07.036Z,99429.75
2022-12-03T06:41:54.051Z,99439.22
2022-12-03T06:44:41.365Z,99444.50
2022-12-03T06:47:28.361Z,99442.03
2022-12-03T06:50:17.857Z,99429.91
2022-12-03T06:53:04.897Z,99435.81
2022-12-03T06:55:51.919Z,99429.84
2022-12-03T06:58:38.981Z,99436.22
2022-12-03T07:01:26.187Z,99444.00
2022-12-03T07:04:13.309Z,99439.66
2022-12-03T07:07:01.509Z,99438.97
2022-12-03T07:09:48.527Z,99436.31
2022-12-03T07:12:35.565Z,99435.13
2022-12-03T07:15:22.542Z,99432.47
2022-12-03T07:18:09.593Z,99435.97
2022-12-03T07:20:56.571Z,99431.28
2022-12-03T07:23:44.645Z,99432.28
2022-12-03T07:26:38.572Z,99434.34
2022-12-03T07:29:25.735Z,99425.81
2022-12-03T07:32:12.774Z,99417.09
2022-12-03T07:35:01.226Z,99427.13
2022-12-03T07:37:57.597Z,99427.13
2022-12-03T07:40:45.334Z,99403.00
2022-12-03T07:43:32.579Z,99412.47
2022-12-03T07:46:38.203Z,99427.44
2022-12-03T07:49:26.833Z,99427.72
2022-12-03T07:52:13.954Z,99417.03
2022-12-03T07:55:01.118Z,99419.50
2022-12-03T07:57:48.183Z,99428.88
2022-12-03T08:00:36.398Z,99423.09
2022-12-03T08:03:24.122Z,99425.31
2022-12-03T08:06:11.186Z,99426.06
2022-12-03T08:08:58.274Z,99420.59
2022-12-03T08:11:48.408Z,99416.91
2022-12-03T08:14:35.921Z,99433.66
2022-12-03T08:17:59.936Z,99442.19
2022-12-03T08:20:49.119Z,99426.28
2022-12-03T08:23:36.672Z,99420.41
2022-12-03T08:26:26.399Z,99426.00
2022-12-03T08:29:16.498Z,99422.88
2022-12-03T08:32:06.375Z,99416.91
2022-12-03T08:34:53.699Z,99409.28
2022-12-03T08:37:41.560Z,99405.28
2022-12-03T08:40:36.174Z,99423.66
2022-12-03T08:43:26.232Z,99403.56
2022-12-03T08:46:21.234Z,99409.47
2022-12-03T08:49:09.620Z,99398.69
2022-12-03T08:52:01.329Z,99415.38
2022-12-03T08:54:56.172Z,99410.06
2022-12-03T08:57:46.616Z,99410.44
2022-12-03T09:00:33.636Z,99420.94
2022-12-03T09:03:22.987Z,99414.88
2022-12-03T09:06:10.064Z,99395.97
2022-12-03T09:08:57.077Z,99413.94
2022-12-03T09:11:44.723Z,99414.59
2022-12-03T09:14:31.761Z,99410.34
2022-12-03T09:17:18.804Z,99405.59
2022-12-03T09:20:06.812Z,99414.91
2022-12-03T09:22:53.892Z,99397.34
2022-12-03T09:25:40.932Z,99404.19
2022-12-03T09:28:28.018Z,99397.00
2022-12-03T09:31:16.085Z,99389.78
2022-12-03T09:34:04.871Z,99395.19
2022-12-03T09:36:51.899Z,99398.50
2022-12-03T09:39:39.019Z,99387.59
2022-12-03T09:42:26.357Z,99390.44
2022-12-03T09:45:15.271Z,99379.81
2022-12-03T09:48:04.161Z,99380.66
2022-12-03T09:50:51.576Z,99383.78
2022-12-03T09:53:41.390Z,99383.88
2022-12-03T09:56:28.870Z,99377.25
2022-12-03T09:59:17.049Z,99375.16
2022-12-03T10:02:22.645Z,99375.25
2022-12-03T10:05:09.868Z,99357.06
2022-12-03T10:08:05.548Z,99364.88
2022-12-03T10:10:56.679Z,99375.41
2022-12-03T10:13:43.888Z,99370.94
2022-12-03T10:16:31.493Z,99358.91
2022-12-03T10:19:39.753Z,99372.09
2022-12-03T10:22:26.746Z,99358.81
2022-12-03T10:25:16.203Z,99350.41
2022-12-03T10:28:04.097Z,99358.03
2022-12-03T10:30:57.997Z,99344.84
2022-12-03T10:33:47.385Z,99343.81
2022-12-03T10:36:34.441Z,99333.94
2022-12-03T10:39:21.456Z,99320.31
2022-12-03T10:42:16.608Z,99326.22
2022-12-03T10:45:19.571Z,99326.22
2022-12-03T10:48:16.438Z,99324.31
2022-12-03T10:51:05.060Z,99333.25
2022-12-03T10:53:52.176Z,99309.00
2022-12-03T10:56:39.264Z,99313.47
2022-12-03T10:59:31.297Z,99311.25
2022-12-03T11:02:24.087Z,99310.09
2022-12-03T11:05:18.419Z,99316.03
2022-12-03T11:08:05.585Z,99294.38
2022-12-03T11:11:13.411Z,99290.22
2022-12-03T11:14:02.837Z,99284.75
2022-12-03T11:16:53.032Z,99284.13
2022-12-03T11:19:39.920Z,99284.13
2022-12-03T11:22:39.120Z,99283.47
2022-12-03T11:25:28.657Z,99289.09
2022-12-03T11:28:36.810Z,99286.25
2022-12-03T11:31:37.503Z,99279.03
2022-12-03T11:34:31.623Z,99273.31
2022-12-03T11:37:18.618Z,99284.22
2022-12-03T11:40:17.976Z,99290.19
2022-12-03T11:43:05.574Z,99274.47
2022-12-03T11:45:52.677Z,99269.69
2022-12-03T11:48:46.560Z,99275.19
2022-12-03T11:51:33.625Z,99268.06
2022-12-03T11:54:23.449Z,99259.34
2022-12-03T11:57:29.778Z,99255.31
2022-12-03T12:00:23.115Z,99249.78
2022-12-03T12:03:24.895Z,99259.88
2022-12-03T12:06:18.174Z,99251.47
2022-12-03T12:09:05.227Z,99251.06
2022-12-03T12:11:52.212Z,99241.81
2022-12-03T12:14:39.224Z,99241.25
2022-12-03T12:17:44.246Z,99237.09
2022-12-03T12:20:31.315Z,99234.13
2022-12-03T12:23:25.816Z,99227.34
2022-12-03T12:26:13.066Z,99237.56
2022-12-03T12:29:00.070Z,99226.69
2022-12-03T12:31:53.674Z,99224.91
2022-12-03T12:34:43.811Z,99232.66
2022-12-03T12:37:47.310Z,99233.19
2022-12-03T12:40:38.781Z,99224.16
2022-12-03T12:43:28.042Z,99229.56
2022-12-03T12:49:27.037Z,99237.75
2022-12-03T12:52:15.096Z,99231.16
2022-12-03T12:55:05.174Z,99218.41
2022-12-03T12:57:52.572Z,99215.53
2022-12-03T13:00:40.391Z,99224.91
2022-12-03T13:03:32.971Z,99216.59
2022-12-03T13:06:26.196Z,99231.16
2022-12-03T13:09:22.891Z,99215.88
2022-12-03T13:12:21.125Z,99203.16
2022-12-03T13:15:46.782Z,99210.34
2022-12-03T13:18:44.648Z,99215.44
2022-12-03T13:21:44.070Z,99206.28
2022-12-03T13:24:45.537Z,99184.81
2022-12-03T13:27:35.517Z,99181.00
2022-12-03T13:30:23.998Z,99181.72
2022-12-03T13:33:26.137Z,99187.69
2022-12-03T13:36:16.437Z,99175.25
2022-12-03T13:39:15.723Z,99181.69
2022-12-03T13:42:33.420Z,99188.78
2022-12-03T13:45:20.504Z,99206.44
2022-12-03T13:48:31.615Z,99197.47
2022-12-03T13:51:27.583Z,99196.50
2022-12-03T13:54:21.625Z,99190.25
2022-12-03T13:57:08.651Z,99168.72
2022-12-03T13:59:56.088Z,99184.75
2022-12-03T14:02:43.662Z,99176.69
2022-12-03T14:05:31.128Z,99192.63
2022-12-03T14:08:18.226Z,99184.44
2022-12-03T14:11:05.478Z,99185.81
2022-12-03T14:13:52.467Z,99185.81
2022-12-03T14:16:39.687Z,99180.94
2022-12-03T14:19:26.862Z,99185.59
2022-12-03T14:22:14.048Z,99181.88
2022-12-03T14:25:01.035Z,99176.03
2022-12-03T14:27:48.103Z,99185.94
2022-12-03T14:30:36.017Z,99176.69
2022-12-03T14:33:23.063Z,99181.69
2022-12-03T14:36:10.204Z,99176.56
2022-12-03T14:38:57.260Z,99187.00
2022-12-03T14:42:03.121Z,99177.31
2022-12-03T14:44:51.401Z,99182.63
2022-12-03T14:47:38.588Z,99187.53
2022-12-03T14:50:25.614Z,99183.16
2022-12-03T14:53:12.645Z,99178.69
2022-12-03T14:55:59.916Z,99180.63
2022-12-03T14:58:47.329Z,99182.53
2022-12-03T15:01:34.588Z,99164.91
2022-12-03T15:04:21.832Z,99178.16
2022-12-03T15:07:09.800Z,99187.84
2022-12-03T15:09:57.133Z,99183.81
2022-12-03T15:12:44.426Z,99186.34
2022-12-03T15:15:31.448Z,99185.41
2022-12-03T15:18:18.860Z,99181.16
2022-12-03T15:21:05.999Z,99171.63
2022-12-03T15:23:53.046Z,99180.28
2022-12-03T15:26:40.056Z,99184.25
2022-12-03T15:29:27.156Z,99174.06
2022-12-03T15:32:14.216Z,99182.53
2022-12-03T15:35:01.438Z,99183.59
2022-12-03T15:37:48.579Z,99159.06
2022-12-03T15:40:36.112Z,99170.50
2022-12-03T15:43:23.442Z,99154.72
2022-12-03T15:46:10.590Z,99162.34
2022-12-03T15:48:57.850Z,99152.91
2022-12-03T15:51:44.999Z,99159.59
2022-12-03T15:54:32.358Z,99162.38
2022-12-03T15:57:20.027Z,99146.31
2022-12-03T16:00:08.923Z,99162.06
2022-12-03T16:02:56.399Z,99148.56
2022-12-03T16:05:43.595Z,99154.41
2022-12-03T16:08:31.108Z,99141.19
2022-12-03T16:11:18.276Z,99147.34
2022-12-03T16:14:05.536Z,99145.16
2022-12-03T16:16:53.070Z,99142.88
2022-12-03T16:19:40.213Z,99142.41
2022-12-03T16:22:28.442Z,99141.72
2022-12-03T16:25:16.150Z,99137.78
2022-12-03T16:28:04.987Z,99138.66
2022-12-03T16:30:52.325Z,99128.38
2022-12-03T16:33:39.918Z,99140.38
2022-12-03T16:36:27.498Z,99129.84
2022-12-03T16:39:16.776Z,99132.94
2022-12-03T16:42:08.973Z,99139.31
2022-12-03T16:44:59.965Z,99135.06
2022-12-03T16:47:47.951Z,99112.75
2022-12-03T16:50:37.713Z,99123.06
2022-12-03T16:53:26.731Z,99135.94
2022-12-03T16:56:14.581Z,99136.22
2022-12-03T16:59:01.937Z,99139.84
2022-12-03T17:01:49.562Z,99137.75
2022-12-03T17:04:37.090Z,99147.16
2022-12-03T17:07:24.256Z,99149.09
2022-12-03T17:10:11.768Z,99147.31
2022-12-03T17:13:14.742Z,99127.88
2022-12-03T17:16:02.828Z,99127.13
2022-12-03T17:18:52.647Z,99139.84
2022-12-03T17:21:41.007Z,99139.31
2022-12-03T17:24:28.453Z,99141.34
2022-12-03T17:27:15.950Z,99140.41
2022-12-03T17:30:04.458Z,99140.41
2022-12-03T17:32:51.961Z,99141.13
2022-12-03T17:35:39.404Z,99139.72
2022-12-03T17:38:27.033Z,99126.22
2022-12-03T17:41:15.706Z,99136.22
2022-12-03T17:44:10.207Z,99143.44
2022-12-03T17:46:59.534Z,99140.16
2022-12-03T17:49:46.761Z,99129.63
2022-12-03T17:52:34.049Z,99139.72
2022-12-03T17:55:30.968Z,99143.25
2022-12-03T17:58:23.536Z,99132.63
2022-12-03T18:01:11.166Z,99117.53
2022-12-03T18:03:58.839Z,99134.75
2022-12-03T18:06:46.358Z,99126.22
2022-12-03T18:09:33.747Z,99133.47
2022-12-03T18:12:21.632Z,99131.78
2022-12-03T18:15:10.371Z,99129.00
2022-12-03T18:17:57.556Z,99120.94
2022-12-03T18:20:45.191Z,99117.13
2022-12-03T18:23:35.477Z,99120.22
2022-12-03T18:26:23.551Z,99119.56
2022-12-03T18:29:11.067Z,99119.25
2022-12-03T18:31:58.367Z,99118.63
2022-12-03T18:34:46.731Z,99113.72
2022-12-03T18:37:37.886Z,99118.09
2022-12-03T18:40:26.857Z,99137.41
2022-12-03T18:43:16.065Z,99130.63
2022-12-03T18:46:04.721Z,99141.03
2022-12-03T18:48:53.251Z,99134.22
2022-12-03T18:51:40.960Z,99130.94
2022-12-03T18:54:28.336Z,99143.25
2022-12-03T18:57:16.328Z,99126.25
2022-12-03T19:00:13.052Z,99138.25
2022-12-03T19:03:03.587Z,99125.00
2022-12-03T19:05:51.974Z,99137.94
2022-12-03T19:08:42.131Z,99153.03
2022-12-03T19:11:29.741Z,99140.41
2022-12-03T19:14:17.778Z,99140.38
2022-12-03T19:17:05.533Z,99142.94
2022-12-03T19:19:53.980Z,99141.63
2022-12-03T19:22:42.200Z,99142.28
2022-12-03T19:25:30.163Z,99116.38
2022-12-03T19:28:19.011Z,99133.78
2022-12-03T19:31:13.985Z,99120.75
2022-12-03T19:34:01.867Z,99113.50
2022-12-03T19:36:49.864Z,99126.91
2022-12-03T19:39:37.450Z,99113.19
2022-12-03T19:42:25.302Z,99136.13
2022-12-03T19:45:13.458Z,99138.03
2022-12-03T19:48:02.709Z,99138.13
2022-12-03T19:51:07.988Z,99134.88
2022-12-03T19:54:02.573Z,99148.34
2022-12-03T19:56:52.627Z,99137.09
2022-12-03T19:59:40.638Z,99142.28
2022-12-03T20:02:28.822Z,99161.06
2022-12-03T20:05:16.830Z,99156.81
2022-12-03T20:08:07.137Z,99150.56
2022-12-03T20:10:54.775Z,99142.50
2022-12-03T20:13:43.656Z,99154.72
2022-12-03T20:16:33.882Z,99144.50
2022-12-03T20:19:21.978Z,99143.13
2022-12-03T20:22:11.260Z,99142.69
2022-12-03T20:24:59.921Z,99151.19
2022-12-03T20:27:47.919Z,99159.28
2022-12-03T20:30:35.593Z,99159.28
2022-12-03T20:33:24.811Z,99153.78
2022-12-03T20:36:14.949Z,99154.41
2022-12-03T20:39:05.294Z,99168.22
2022-12-03T20:41:54.138Z,99160.75
2022-12-03T20:44:43.018Z,99143.03
2022-12-03T20:47:30.734Z,99139.72
2022-12-03T20:50:19.141Z,99151.84
2022-12-03T20:53:24.426Z,99156.00
2022-12-03T20:56:21.388Z,99160.44
2022-12-03T20:59:12.889Z,99151.63
2022-12-03T21:02:00.891Z,99157.06
2022-12-03T21:04:49.641Z,99153.53
2022-12-03T21:07:37.300Z,99145.16
2022-12-03T21:10:36.780Z,99143.56
2022-12-03T21:13:29.246Z,99118.50
2022-12-03T21:16:39.270Z,99148.97
2022-12-03T21:19:29.062Z,99137.19
2022-12-03T21:22:16.680Z,99127.72
2022-12-03T21:25:04.562Z,99137.63
2022-12-03T21:27:52.071Z,99139.31
2022-12-03T21:30:40.342Z,99134.97
2022-12-03T21:33:28.502Z,99150.25
2022-12-03T21:36:16.937Z,99149.94
2022-12-03T21:39:05.141Z,99148.34
2022-12-03T21:42:22.290Z,99144.31
2022-12-03T21:44:59.748Z,99147.81
2022-12-03T21:47:48.643Z,99145.38
2022-12-03T21:50:37.487Z,99126.25
2022-12-03T21:53:25.170Z,99138.88
2022-12-03T21:56:15.910Z,99138.31
2022-12-03T21:59:04.392Z,99116.16
2022-12-03T22:01:51.863Z,99139.59
2022-12-03T22:04:40.543Z,99123.66
2022-12-03T22:07:28.056Z,99112.94
2022-12-03T22:10:15.341Z,99131.00
2022-12-03T22:13:02.570Z,99127.38
2022-12-03T22:15:49.711Z,99132.38
2022-12-03T22:18:37.441Z,99114.94
2022-12-03T22:21:25.650Z,99108.34
2022-12-03T22:24:12.698Z,99090.59
2022-12-03T22:26:59.736Z,99118.59
2022-12-03T22:29:46.786Z,99117.63
2022-12-03T22:32:33.877Z,99111.72
2022-12-03T22:35:21.165Z,99111.31
2022-12-03T22:38:08.170Z,99115.03
2022-12-03T22:40:55.407Z,99118.84
2022-12-03T22:43:42.990Z,99115.13
2022-12-03T22:46:30.185Z,99108.97
2022-12-03T22:49:17.368Z,99101.53
2022-12-03T22:52:04.448Z,99108.88
2022-12-03T22:54:51.476Z,99090.41
2022-12-03T22:57:38.518Z,99099.41
2022-12-03T23:00:32.391Z,99112.84
2022-12-03T23:03:19.799Z,99107.09
2022-12-03T23:06:11.660Z,99102.25
2022-12-03T23:08:59.389Z,99089.19
2022-12-03T23:11:46.926Z,99077.81
2022-12-03T23:14:33.950Z,99076.03
2022-12-03T23:17:20.970Z,99087.31
2022-12-03T23:20:08.589Z,99082.00
2022-12-03T23:22:56.318Z,99077.75
2022-12-03T23:25:43.815Z,99070.59
2022-12-03T23:28:33.230Z,99067.19
2022-12-03T23:31:29.936Z,99062.66
2022-12-03T23:34:17.156Z,99061.50
2022-12-03T23:37:06.223Z,99059.34
2022-12-03T23:39:53.615Z,99050.19
2022-12-03T23:42:40.834Z,99053.13
2022-12-03T23:45:27.897Z,99049.50
2022-12-03T23:48:14.978Z,99040.41
2022-12-03T23:51:08.026Z,99046.22
2022-12-03T23:53:55.798Z,99052.56
2022-12-03T23:56:42.820Z,99044.50
2022-12-03T23:59:30.020Z,99046.69
